sensor_id;sensor_type;location;lat;lon;timestamp;P1;durP1;ratioP1;P2;durP2;ratioP2
33104;SDS011;19476;51.448;6.674;2023-05-31T00:01:25;5.70;;;2.85;;
33104;SDS011;19476;51.448;6.674;2023-05-31T00:03:51;4.60;;;2.70;;
33104;SDS011;19476;51.448;6.674;2023-05-31T00:06:17;4.20;;;2.63;;
33104;SDS011;19476;51.448;6.674;2023-05-31T00:08:42;5.47;;;2.83;;
33104;SDS011;19476;51.448;6.674;2023-05-31T00:11:08;3.97;;;2.42;;
33104;SDS011;19476;51.448;6.674;2023-05-31T00:13:34;6.78;;;2.60;;
33104;SDS011;19476;51.448;6.674;2023-05-31T00:16:00;4.40;;;2.90;;
33104;SDS011;19476;51.448;6.674;2023-05-31T00:18:26;6.82;;;3.30;;
33104;SDS011;19476;51.448;6.674;2023-05-31T00:20:52;5.30;;;2.85;;
33104;SDS011;19476;51.448;6.674;2023-05-31T00:23:18;4.28;;;2.50;;
33104;SDS011;19476;51.448;6.674;2023-05-31T00:25:43;4.78;;;2.83;;
33104;SDS011;19476;51.448;6.674;2023-05-31T00:28:09;4.65;;;2.72;;
33104;SDS011;19476;51.448;6.674;2023-05-31T00:30:35;4.45;;;2.67;;
33104;SDS011;19476;51.448;6.674;2023-05-31T00:33:01;5.05;;;2.95;;
33104;SDS011;19476;51.448;6.674;2023-05-31T00:35:27;4.85;;;2.35;;
33104;SDS011;19476;51.448;6.674;2023-05-31T00:37:52;4.28;;;2.40;;
33104;SDS011;19476;51.448;6.674;2023-05-31T00:40:18;5.53;;;2.70;;
33104;SDS011;19476;51.448;6.674;2023-05-31T00:42:44;3.83;;;2.13;;
33104;SDS011;19476;51.448;6.674;2023-05-31T00:45:10;5.05;;;2.42;;
33104;SDS011;19476;51.448;6.674;2023-05-31T00:47:36;4.95;;;2.80;;
33104;SDS011;19476;51.448;6.674;2023-05-31T00:50:03;4.53;;;2.58;;
33104;SDS011;19476;51.448;6.674;2023-05-31T00:52:30;4.50;;;2.70;;
33104;SDS011;19476;51.448;6.674;2023-05-31T00:54:57;3.60;;;2.17;;
33104;SDS011;19476;51.448;6.674;2023-05-31T00:57:23;5.25;;;2.72;;
33104;SDS011;19476;51.448;6.674;2023-05-31T00:59:49;5.80;;;2.17;;
33104;SDS011;19476;51.448;6.674;2023-05-31T01:02:15;3.90;;;2.25;;
33104;SDS011;19476;51.448;6.674;2023-05-31T01:04:43;4.50;;;2.38;;
33104;SDS011;19476;51.448;6.674;2023-05-31T01:07:10;4.57;;;2.45;;
33104;SDS011;19476;51.448;6.674;2023-05-31T01:09:36;4.32;;;2.70;;
33104;SDS011;19476;51.448;6.674;2023-05-31T01:20:03;3.55;;;2.13;;
33104;SDS011;19476;51.448;6.674;2023-05-31T01:28:11;4.68;;;2.38;;
33104;SDS011;19476;51.448;6.674;2023-05-31T01:30:39;4.45;;;2.30;;
33104;SDS011;19476;51.448;6.674;2023-05-31T01:33:08;4.65;;;2.47;;
33104;SDS011;19476;51.448;6.674;2023-05-31T01:35:35;3.40;;;2.35;;
33104;SDS011;19476;51.448;6.674;2023-05-31T01:38:01;3.85;;;2.42;;
33104;SDS011;19476;51.448;6.674;2023-05-31T01:40:27;3.83;;;2.28;;
33104;SDS011;19476;51.448;6.674;2023-05-31T01:42:54;3.97;;;2.30;;
33104;SDS011;19476;51.448;6.674;2023-05-31T01:45:19;5.00;;;2.13;;
33104;SDS011;19476;51.448;6.674;2023-05-31T01:47:48;5.45;;;2.70;;
33104;SDS011;19476;51.448;6.674;2023-05-31T01:50:15;4.78;;;2.22;;
33104;SDS011;19476;51.448;6.674;2023-05-31T01:52:43;4.68;;;2.30;;
33104;SDS011;19476;51.448;6.674;2023-05-31T01:55:08;3.17;;;2.08;;
33104;SDS011;19476;51.448;6.674;2023-05-31T01:57:37;3.63;;;2.47;;
33104;SDS011;19476;51.448;6.674;2023-05-31T02:00:05;4.00;;;2.10;;
33104;SDS011;19476;51.448;6.674;2023-05-31T02:02:41;3.97;;;2.22;;
33104;SDS011;19476;51.448;6.674;2023-05-31T02:05:07;3.33;;;2.03;;
33104;SDS011;19476;51.448;6.674;2023-05-31T02:07:42;5.10;;;2.45;;
33104;SDS011;19476;51.448;6.674;2023-05-31T02:10:10;3.33;;;1.85;;
33104;SDS011;19476;51.448;6.674;2023-05-31T02:12:37;3.83;;;2.47;;
33104;SDS011;19476;51.448;6.674;2023-05-31T02:15:03;3.60;;;2.10;;
33104;SDS011;19476;51.448;6.674;2023-05-31T02:17:36;4.10;;;2.45;;
33104;SDS011;19476;51.448;6.674;2023-05-31T02:20:06;3.47;;;2.10;;
33104;SDS011;19476;51.448;6.674;2023-05-31T02:22:34;4.28;;;2.10;;
33104;SDS011;19476;51.448;6.674;2023-05-31T02:25:00;3.33;;;1.92;;
33104;SDS011;19476;51.448;6.674;2023-05-31T02:27:25;3.35;;;2.35;;
33104;SDS011;19476;51.448;6.674;2023-05-31T02:29:53;2.95;;;2.08;;
33104;SDS011;19476;51.448;6.674;2023-05-31T02:32:19;4.57;;;2.55;;
33104;SDS011;19476;51.448;6.674;2023-05-31T02:34:45;4.22;;;2.63;;
33104;SDS011;19476;51.448;6.674;2023-05-31T02:37:11;6.18;;;2.13;;
33104;SDS011;19476;51.448;6.674;2023-05-31T02:39:37;4.68;;;2.30;;
33104;SDS011;19476;51.448;6.674;2023-05-31T02:42:03;4.22;;;2.55;;
33104;SDS011;19476;51.448;6.674;2023-05-31T02:44:29;4.18;;;2.30;;
33104;SDS011;19476;51.448;6.674;2023-05-31T02:46:54;4.57;;;2.38;;
33104;SDS011;19476;51.448;6.674;2023-05-31T02:49:21;3.97;;;2.40;;
33104;SDS011;19476;51.448;6.674;2023-05-31T02:51:47;4.30;;;2.50;;
33104;SDS011;19476;51.448;6.674;2023-05-31T02:54:12;4.10;;;2.38;;
33104;SDS011;19476;51.448;6.674;2023-05-31T02:56:38;4.60;;;2.70;;
33104;SDS011;19476;51.448;6.674;2023-05-31T02:59:04;6.93;;;2.50;;
33104;SDS011;19476;51.448;6.674;2023-05-31T03:01:30;5.30;;;2.78;;
33104;SDS011;19476;51.448;6.674;2023-05-31T03:03:56;4.55;;;2.45;;
33104;SDS011;19476;51.448;6.674;2023-05-31T03:06:21;5.97;;;2.90;;
33104;SDS011;19476;51.448;6.674;2023-05-31T03:08:48;5.20;;;2.50;;
33104;SDS011;19476;51.448;6.674;2023-05-31T03:11:14;5.47;;;2.90;;
33104;SDS011;19476;51.448;6.674;2023-05-31T03:13:40;7.15;;;2.85;;
33104;SDS011;19476;51.448;6.674;2023-05-31T03:16:05;5.45;;;2.50;;
33104;SDS011;19476;51.448;6.674;2023-05-31T03:18:31;5.00;;;2.75;;
33104;SDS011;19476;51.448;6.674;2023-05-31T03:20:57;4.50;;;2.65;;
33104;SDS011;19476;51.448;6.674;2023-05-31T03:23:23;4.93;;;2.88;;
33104;SDS011;19476;51.448;6.674;2023-05-31T03:25:48;4.85;;;2.65;;
33104;SDS011;19476;51.448;6.674;2023-05-31T03:28:14;5.68;;;2.97;;
33104;SDS011;19476;51.448;6.674;2023-05-31T03:30:40;5.75;;;2.55;;
33104;SDS011;19476;51.448;6.674;2023-05-31T03:33:06;6.00;;;3.33;;
33104;SDS011;19476;51.448;6.674;2023-05-31T03:35:33;5.03;;;2.70;;
33104;SDS011;19476;51.448;6.674;2023-05-31T03:37:59;4.95;;;2.55;;
33104;SDS011;19476;51.448;6.674;2023-05-31T03:40:25;5.28;;;2.60;;
33104;SDS011;19476;51.448;6.674;2023-05-31T03:42:50;5.22;;;3.22;;
33104;SDS011;19476;51.448;6.674;2023-05-31T03:45:16;6.40;;;3.17;;
33104;SDS011;19476;51.448;6.674;2023-05-31T03:47:42;6.00;;;3.42;;
33104;SDS011;19476;51.448;6.674;2023-05-31T03:50:08;5.00;;;3.15;;
33104;SDS011;19476;51.448;6.674;2023-05-31T03:52:34;5.00;;;2.90;;
33104;SDS011;19476;51.448;6.674;2023-05-31T03:55:03;4.50;;;2.55;;
33104;SDS011;19476;51.448;6.674;2023-05-31T03:57:28;6.15;;;2.90;;
33104;SDS011;19476;51.448;6.674;2023-05-31T03:59:54;6.05;;;3.33;;
33104;SDS011;19476;51.448;6.674;2023-05-31T04:02:20;7.72;;;3.70;;
33104;SDS011;19476;51.448;6.674;2023-05-31T04:04:47;5.65;;;2.85;;
33104;SDS011;19476;51.448;6.674;2023-05-31T04:07:14;4.97;;;2.85;;
33104;SDS011;19476;51.448;6.674;2023-05-31T04:09:40;6.00;;;3.38;;
33104;SDS011;19476;51.448;6.674;2023-05-31T04:12:06;5.90;;;3.30;;
33104;SDS011;19476;51.448;6.674;2023-05-31T04:14:32;5.18;;;2.90;;
33104;SDS011;19476;51.448;6.674;2023-05-31T04:16:57;4.93;;;2.92;;
33104;SDS011;19476;51.448;6.674;2023-05-31T04:19:23;8.52;;;3.33;;
33104;SDS011;19476;51.448;6.674;2023-05-31T04:21:49;5.20;;;3.22;;
33104;SDS011;19476;51.448;6.674;2023-05-31T04:24:15;5.38;;;3.30;;
33104;SDS011;19476;51.448;6.674;2023-05-31T04:26:41;5.90;;;3.38;;
33104;SDS011;19476;51.448;6.674;2023-05-31T04:29:06;6.93;;;2.97;;
33104;SDS011;19476;51.448;6.674;2023-05-31T04:31:32;6.35;;;3.50;;
33104;SDS011;19476;51.448;6.674;2023-05-31T04:34:02;4.80;;;2.92;;
33104;SDS011;19476;51.448;6.674;2023-05-31T04:36:29;6.50;;;3.05;;
33104;SDS011;19476;51.448;6.674;2023-05-31T04:38:58;7.10;;;3.53;;
33104;SDS011;19476;51.448;6.674;2023-05-31T04:41:24;6.75;;;3.42;;
33104;SDS011;19476;51.448;6.674;2023-05-31T04:43:51;6.22;;;3.58;;
33104;SDS011;19476;51.448;6.674;2023-05-31T04:46:18;7.78;;;3.75;;
33104;SDS011;19476;51.448;6.674;2023-05-31T04:48:45;5.88;;;3.30;;
33104;SDS011;19476;51.448;6.674;2023-05-31T04:51:15;6.05;;;3.38;;
33104;SDS011;19476;51.448;6.674;2023-05-31T04:53:42;6.70;;;3.85;;
33104;SDS011;19476;51.448;6.674;2023-05-31T04:56:09;5.97;;;3.53;;
33104;SDS011;19476;51.448;6.674;2023-05-31T04:58:37;6.20;;;3.53;;
33104;SDS011;19476;51.448;6.674;2023-05-31T05:01:03;6.30;;;3.75;;
33104;SDS011;19476;51.448;6.674;2023-05-31T05:03:32;8.13;;;4.20;;
33104;SDS011;19476;51.448;6.674;2023-05-31T05:06:01;5.38;;;3.35;;
33104;SDS011;19476;51.448;6.674;2023-05-31T05:08:37;6.70;;;3.72;;
33104;SDS011;19476;51.448;6.674;2023-05-31T05:11:03;7.53;;;4.05;;
33104;SDS011;19476;51.448;6.674;2023-05-31T05:13:29;9.25;;;4.07;;
33104;SDS011;19476;51.448;6.674;2023-05-31T05:15:55;5.10;;;3.42;;
33104;SDS011;19476;51.448;6.674;2023-05-31T05:18:20;6.55;;;3.78;;
33104;SDS011;19476;51.448;6.674;2023-05-31T05:20:46;5.90;;;3.38;;
33104;SDS011;19476;51.448;6.674;2023-05-31T05:23:12;7.28;;;3.50;;
33104;SDS011;19476;51.448;6.674;2023-05-31T05:25:38;7.32;;;4.07;;
33104;SDS011;19476;51.448;6.674;2023-05-31T05:28:03;7.60;;;3.28;;
33104;SDS011;19476;51.448;6.674;2023-05-31T05:30:29;6.57;;;3.80;;
33104;SDS011;19476;51.448;6.674;2023-05-31T05:32:55;7.28;;;4.03;;
33104;SDS011;19476;51.448;6.674;2023-05-31T05:35:21;7.30;;;3.72;;
33104;SDS011;19476;51.448;6.674;2023-05-31T05:37:47;6.25;;;3.58;;
33104;SDS011;19476;51.448;6.674;2023-05-31T05:40:12;8.88;;;3.80;;
33104;SDS011;19476;51.448;6.674;2023-05-31T05:42:38;5.32;;;3.25;;
33104;SDS011;19476;51.448;6.674;2023-05-31T05:45:04;6.70;;;3.58;;
33104;SDS011;19476;51.448;6.674;2023-05-31T05:47:32;7.18;;;4.13;;
33104;SDS011;19476;51.448;6.674;2023-05-31T05:49:58;6.68;;;3.45;;
33104;SDS011;19476;51.448;6.674;2023-05-31T05:52:24;6.22;;;3.60;;
33104;SDS011;19476;51.448;6.674;2023-05-31T05:54:50;7.80;;;3.60;;
33104;SDS011;19476;51.448;6.674;2023-05-31T05:57:16;6.82;;;3.58;;
33104;SDS011;19476;51.448;6.674;2023-05-31T05:59:42;7.78;;;3.67;;
33104;SDS011;19476;51.448;6.674;2023-05-31T06:02:09;6.93;;;3.70;;
33104;SDS011;19476;51.448;6.674;2023-05-31T06:04:35;8.63;;;3.97;;
33104;SDS011;19476;51.448;6.674;2023-05-31T06:07:01;6.47;;;3.80;;
33104;SDS011;19476;51.448;6.674;2023-05-31T06:09:27;8.77;;;3.67;;
33104;SDS011;19476;51.448;6.674;2023-05-31T06:11:53;6.00;;;3.40;;
33104;SDS011;19476;51.448;6.674;2023-05-31T06:14:18;6.72;;;3.90;;
33104;SDS011;19476;51.448;6.674;2023-05-31T06:16:44;6.97;;;3.83;;
33104;SDS011;19476;51.448;6.674;2023-05-31T06:19:10;5.10;;;3.22;;
33104;SDS011;19476;51.448;6.674;2023-05-31T06:21:36;6.10;;;3.55;;
33104;SDS011;19476;51.448;6.674;2023-05-31T06:24:03;5.28;;;3.55;;
33104;SDS011;19476;51.448;6.674;2023-05-31T06:26:29;5.32;;;3.17;;
33104;SDS011;19476;51.448;6.674;2023-05-31T06:28:56;5.90;;;3.33;;
33104;SDS011;19476;51.448;6.674;2023-05-31T06:31:26;8.48;;;3.20;;
33104;SDS011;19476;51.448;6.674;2023-05-31T06:33:52;7.97;;;3.55;;
33104;SDS011;19476;51.448;6.674;2023-05-31T06:36:18;8.40;;;3.70;;
33104;SDS011;19476;51.448;6.674;2023-05-31T06:38:44;6.47;;;3.25;;
33104;SDS011;19476;51.448;6.674;2023-05-31T06:41:11;7.13;;;3.65;;
33104;SDS011;19476;51.448;6.674;2023-05-31T06:43:37;6.47;;;3.50;;
33104;SDS011;19476;51.448;6.674;2023-05-31T06:46:03;5.63;;;3.10;;
33104;SDS011;19476;51.448;6.674;2023-05-31T06:48:32;6.15;;;2.95;;
33104;SDS011;19476;51.448;6.674;2023-05-31T06:50:58;9.43;;;3.28;;
33104;SDS011;19476;51.448;6.674;2023-05-31T06:53:24;4.95;;;2.90;;
33104;SDS011;19476;51.448;6.674;2023-05-31T06:55:50;5.90;;;3.22;;
33104;SDS011;19476;51.448;6.674;2023-05-31T06:58:16;6.80;;;3.10;;
33104;SDS011;19476;51.448;6.674;2023-05-31T07:00:42;7.57;;;2.97;;
33104;SDS011;19476;51.448;6.674;2023-05-31T07:03:08;5.80;;;3.28;;
33104;SDS011;19476;51.448;6.674;2023-05-31T07:05:34;5.45;;;3.17;;
33104;SDS011;19476;51.448;6.674;2023-05-31T07:08:00;5.55;;;2.80;;
33104;SDS011;19476;51.448;6.674;2023-05-31T07:10:26;4.78;;;2.63;;
33104;SDS011;19476;51.448;6.674;2023-05-31T07:12:54;5.70;;;2.90;;
33104;SDS011;19476;51.448;6.674;2023-05-31T07:15:20;6.32;;;2.78;;
33104;SDS011;19476;51.448;6.674;2023-05-31T07:17:46;7.65;;;2.83;;
33104;SDS011;19476;51.448;6.674;2023-05-31T07:20:12;5.50;;;3.05;;
33104;SDS011;19476;51.448;6.674;2023-05-31T07:22:37;8.00;;;2.70;;
33104;SDS011;19476;51.448;6.674;2023-05-31T07:25:04;7.20;;;2.72;;
33104;SDS011;19476;51.448;6.674;2023-05-31T07:27:30;5.50;;;3.00;;
33104;SDS011;19476;51.448;6.674;2023-05-31T07:29:56;6.45;;;2.80;;
33104;SDS011;19476;51.448;6.674;2023-05-31T07:32:22;6.53;;;2.78;;
33104;SDS011;19476;51.448;6.674;2023-05-31T07:34:48;4.90;;;2.20;;
33104;SDS011;19476;51.448;6.674;2023-05-31T07:37:14;4.85;;;2.70;;
33104;SDS011;19476;51.448;6.674;2023-05-31T07:39:40;6.10;;;2.80;;
33104;SDS011;19476;51.448;6.674;2023-05-31T07:42:09;5.93;;;2.60;;
33104;SDS011;19476;51.448;6.674;2023-05-31T07:44:40;5.38;;;2.95;;
33104;SDS011;19476;51.448;6.674;2023-05-31T07:47:10;5.50;;;2.83;;
33104;SDS011;19476;51.448;6.674;2023-05-31T07:49:36;5.65;;;2.38;;
33104;SDS011;19476;51.448;6.674;2023-05-31T07:52:02;7.22;;;2.80;;
33104;SDS011;19476;51.448;6.674;2023-05-31T07:54:32;4.57;;;2.55;;
33104;SDS011;19476;51.448;6.674;2023-05-31T07:56:58;4.73;;;2.43;;
33104;SDS011;19476;51.448;6.674;2023-05-31T07:59:25;5.00;;;2.20;;
33104;SDS011;19476;51.448;6.674;2023-05-31T08:01:50;4.65;;;2.20;;
33104;SDS011;19476;51.448;6.674;2023-05-31T08:04:17;5.53;;;2.53;;
33104;SDS011;19476;51.448;6.674;2023-05-31T08:06:45;6.03;;;2.58;;
33104;SDS011;19476;51.448;6.674;2023-05-31T08:09:10;6.70;;;2.55;;
33104;SDS011;19476;51.448;6.674;2023-05-31T08:11:36;6.45;;;2.42;;
33104;SDS011;19476;51.448;6.674;2023-05-31T08:14:03;3.90;;;2.13;;
33104;SDS011;19476;51.448;6.674;2023-05-31T08:16:30;3.35;;;1.83;;
33104;SDS011;19476;51.448;6.674;2023-05-31T08:18:57;5.07;;;2.47;;
33104;SDS011;19476;51.448;6.674;2023-05-31T08:21:23;7.63;;;2.33;;
33104;SDS011;19476;51.448;6.674;2023-05-31T08:23:49;5.53;;;2.10;;
33104;SDS011;19476;51.448;6.674;2023-05-31T08:26:18;4.60;;;2.22;;
33104;SDS011;19476;51.448;6.674;2023-05-31T08:28:44;3.45;;;1.98;;
33104;SDS011;19476;51.448;6.674;2023-05-31T08:31:13;5.35;;;2.25;;
33104;SDS011;19476;51.448;6.674;2023-05-31T08:33:42;6.07;;;2.22;;
33104;SDS011;19476;51.448;6.674;2023-05-31T08:36:19;5.18;;;2.47;;
33104;SDS011;19476;51.448;6.674;2023-05-31T08:38:45;4.22;;;2.20;;
33104;SDS011;19476;51.448;6.674;2023-05-31T08:41:11;4.90;;;1.80;;
33104;SDS011;19476;51.448;6.674;2023-05-31T08:43:38;5.78;;;2.03;;
33104;SDS011;19476;51.448;6.674;2023-05-31T08:46:04;4.97;;;2.30;;
33104;SDS011;19476;51.448;6.674;2023-05-31T08:51:38;4.68;;;2.30;;
33104;SDS011;19476;51.448;6.674;2023-05-31T08:54:07;6.35;;;2.13;;
33104;SDS011;19476;51.448;6.674;2023-05-31T08:56:37;4.80;;;1.88;;
33104;SDS011;19476;51.448;6.674;2023-05-31T08:59:07;4.07;;;1.70;;
33104;SDS011;19476;51.448;6.674;2023-05-31T09:04:02;4.68;;;1.63;;
33104;SDS011;19476;51.448;6.674;2023-05-31T09:06:29;4.57;;;1.70;;
33104;SDS011;19476;51.448;6.674;2023-05-31T09:08:58;7.13;;;2.25;;
33104;SDS011;19476;51.448;6.674;2023-05-31T09:11:27;3.42;;;1.90;;
33104;SDS011;19476;51.448;6.674;2023-05-31T09:13:53;5.68;;;2.28;;
33104;SDS011;19476;51.448;6.674;2023-05-31T09:16:20;7.13;;;1.70;;
33104;SDS011;19476;51.448;6.674;2023-05-31T09:18:47;4.55;;;2.08;;
33104;SDS011;19476;51.448;6.674;2023-05-31T09:21:13;5.18;;;1.88;;
33104;SDS011;19476;51.448;6.674;2023-05-31T09:23:56;4.65;;;2.25;;
33104;SDS011;19476;51.448;6.674;2023-05-31T09:26:24;9.82;;;2.30;;
33104;SDS011;19476;51.448;6.674;2023-05-31T09:28:52;4.75;;;2.03;;
33104;SDS011;19476;51.448;6.674;2023-05-31T09:31:19;5.28;;;1.42;;
33104;SDS011;19476;51.448;6.674;2023-05-31T09:33:46;4.32;;;1.77;;
33104;SDS011;19476;51.448;6.674;2023-05-31T09:36:13;3.75;;;1.63;;
33104;SDS011;19476;51.448;6.674;2023-05-31T09:38:47;5.78;;;1.95;;
33104;SDS011;19476;51.448;6.674;2023-05-31T09:41:15;3.15;;;1.65;;
33104;SDS011;19476;51.448;6.674;2023-05-31T09:43:49;3.50;;;1.63;;
33104;SDS011;19476;51.448;6.674;2023-05-31T09:46:15;3.75;;;1.60;;
33104;SDS011;19476;51.448;6.674;2023-05-31T09:48:43;4.00;;;1.70;;
33104;SDS011;19476;51.448;6.674;2023-05-31T09:51:10;3.72;;;1.70;;
33104;SDS011;19476;51.448;6.674;2023-05-31T09:53:43;3.50;;;2.08;;
33104;SDS011;19476;51.448;6.674;2023-05-31T09:56:11;3.85;;;1.90;;
33104;SDS011;19476;51.448;6.674;2023-05-31T09:58:54;3.53;;;1.77;;
33104;SDS011;19476;51.448;6.674;2023-05-31T10:01:25;4.18;;;1.63;;
33104;SDS011;19476;51.448;6.674;2023-05-31T10:03:51;8.80;;;1.60;;
33104;SDS011;19476;51.448;6.674;2023-05-31T10:06:20;4.82;;;1.35;;
33104;SDS011;19476;51.448;6.674;2023-05-31T10:08:46;2.80;;;1.30;;
33104;SDS011;19476;51.448;6.674;2023-05-31T10:11:16;2.80;;;1.40;;
33104;SDS011;19476;51.448;6.674;2023-05-31T10:13:44;3.38;;;1.67;;
33104;SDS011;19476;51.448;6.674;2023-05-31T10:16:15;4.55;;;1.77;;
33104;SDS011;19476;51.448;6.674;2023-05-31T10:18:45;3.75;;;1.40;;
33104;SDS011;19476;51.448;6.674;2023-05-31T10:21:17;11.50;;;1.52;;
33104;SDS011;19476;51.448;6.674;2023-05-31T10:24:07;3.47;;;1.63;;
33104;SDS011;19476;51.448;6.674;2023-05-31T10:26:46;10.82;;;1.83;;
33104;SDS011;19476;51.448;6.674;2023-05-31T10:29:27;3.73;;;1.50;;
33104;SDS011;19476;51.448;6.674;2023-05-31T10:32:01;3.90;;;1.50;;
33104;SDS011;19476;51.448;6.674;2023-05-31T10:34:33;4.00;;;1.45;;
33104;SDS011;19476;51.448;6.674;2023-05-31T10:36:59;2.63;;;1.30;;
33104;SDS011;19476;51.448;6.674;2023-05-31T10:42:19;2.80;;;1.20;;
33104;SDS011;19476;51.448;6.674;2023-05-31T10:44:48;3.92;;;1.60;;
33104;SDS011;19476;51.448;6.674;2023-05-31T10:47:35;4.15;;;1.80;;
33104;SDS011;19476;51.448;6.674;2023-05-31T10:50:17;5.07;;;1.40;;
33104;SDS011;19476;51.448;6.674;2023-05-31T10:52:45;3.65;;;1.35;;
33104;SDS011;19476;51.448;6.674;2023-05-31T10:55:15;2.85;;;1.50;;
33104;SDS011;19476;51.448;6.674;2023-05-31T10:57:54;3.28;;;1.33;;
33104;SDS011;19476;51.448;6.674;2023-05-31T11:00:24;3.42;;;1.40;;
33104;SDS011;19476;51.448;6.674;2023-05-31T11:02:55;5.00;;;1.38;;
33104;SDS011;19476;51.448;6.674;2023-05-31T11:05:24;2.83;;;1.40;;
33104;SDS011;19476;51.448;6.674;2023-05-31T11:07:53;4.63;;;1.40;;
33104;SDS011;19476;51.448;6.674;2023-05-31T11:10:29;4.10;;;1.60;;
33104;SDS011;19476;51.448;6.674;2023-05-31T11:13:01;4.57;;;1.45;;
33104;SDS011;19476;51.448;6.674;2023-05-31T11:15:39;4.93;;;1.67;;
33104;SDS011;19476;51.448;6.674;2023-05-31T11:18:06;6.55;;;1.77;;
33104;SDS011;19476;51.448;6.674;2023-05-31T11:20:34;2.28;;;1.17;;
33104;SDS011;19476;51.448;6.674;2023-05-31T11:34:23;2.53;;;1.25;;
33104;SDS011;19476;51.448;6.674;2023-05-31T11:36:51;5.68;;;1.15;;
33104;SDS011;19476;51.448;6.674;2023-05-31T11:39:21;3.45;;;1.52;;
33104;SDS011;19476;51.448;6.674;2023-05-31T11:41:47;3.47;;;1.20;;
33104;SDS011;19476;51.448;6.674;2023-05-31T11:44:13;4.10;;;1.42;;
33104;SDS011;19476;51.448;6.674;2023-05-31T11:46:44;4.25;;;1.63;;
33104;SDS011;19476;51.448;6.674;2023-05-31T11:49:17;5.53;;;1.73;;
33104;SDS011;19476;51.448;6.674;2023-05-31T11:51:44;3.08;;;1.40;;
33104;SDS011;19476;51.448;6.674;2023-05-31T11:54:16;2.00;;;1.20;;
33104;SDS011;19476;51.448;6.674;2023-05-31T11:56:45;2.53;;;1.33;;
33104;SDS011;19476;51.448;6.674;2023-05-31T11:59:14;2.70;;;1.40;;
33104;SDS011;19476;51.448;6.674;2023-05-31T12:01:43;3.13;;;1.40;;
33104;SDS011;19476;51.448;6.674;2023-05-31T12:04:09;2.75;;;1.30;;
33104;SDS011;19476;51.448;6.674;2023-05-31T12:06:37;2.50;;;1.20;;
33104;SDS011;19476;51.448;6.674;2023-05-31T12:09:03;2.03;;;1.15;;
33104;SDS011;19476;51.448;6.674;2023-05-31T12:11:38;4.57;;;1.38;;
33104;SDS011;19476;51.448;6.674;2023-05-31T12:14:09;3.35;;;1.55;;
33104;SDS011;19476;51.448;6.674;2023-05-31T12:16:37;3.60;;;1.52;;
33104;SDS011;19476;51.448;6.674;2023-05-31T12:19:03;3.75;;;1.60;;
33104;SDS011;19476;51.448;6.674;2023-05-31T12:21:35;3.58;;;1.60;;
33104;SDS011;19476;51.448;6.674;2023-05-31T12:24:03;3.83;;;1.80;;
33104;SDS011;19476;51.448;6.674;2023-05-31T12:26:48;2.28;;;1.30;;
33104;SDS011;19476;51.448;6.674;2023-05-31T12:29:22;2.55;;;1.40;;
33104;SDS011;19476;51.448;6.674;2023-05-31T12:32:02;3.10;;;1.15;;
33104;SDS011;19476;51.448;6.674;2023-05-31T12:34:29;3.30;;;1.92;;
33104;SDS011;19476;51.448;6.674;2023-05-31T12:37:05;3.80;;;2.00;;
33104;SDS011;19476;51.448;6.674;2023-05-31T12:39:32;2.42;;;1.40;;
33104;SDS011;19476;51.448;6.674;2023-05-31T12:44:29;2.40;;;1.20;;
33104;SDS011;19476;51.448;6.674;2023-05-31T12:47:00;3.00;;;1.30;;
33104;SDS011;19476;51.448;6.674;2023-05-31T12:49:27;3.80;;;1.77;;
33104;SDS011;19476;51.448;6.674;2023-05-31T12:54:27;3.17;;;1.40;;
33104;SDS011;19476;51.448;6.674;2023-05-31T12:56:55;2.58;;;1.67;;
33104;SDS011;19476;51.448;6.674;2023-05-31T12:59:21;4.85;;;1.48;;
33104;SDS011;19476;51.448;6.674;2023-05-31T13:01:47;2.60;;;1.48;;
33104;SDS011;19476;51.448;6.674;2023-05-31T13:04:13;4.15;;;1.67;;
33104;SDS011;19476;51.448;6.674;2023-05-31T13:06:39;4.07;;;1.77;;
33104;SDS011;19476;51.448;6.674;2023-05-31T13:09:06;7.93;;;2.00;;
33104;SDS011;19476;51.448;6.674;2023-05-31T13:11:37;7.57;;;2.13;;
33104;SDS011;19476;51.448;6.674;2023-05-31T13:14:04;3.78;;;1.50;;
33104;SDS011;19476;51.448;6.674;2023-05-31T13:16:33;5.13;;;1.58;;
33104;SDS011;19476;51.448;6.674;2023-05-31T13:19:05;3.58;;;1.58;;
33104;SDS011;19476;51.448;6.674;2023-05-31T13:21:35;2.42;;;1.35;;
33104;SDS011;19476;51.448;6.674;2023-05-31T13:24:07;4.90;;;2.15;;
33104;SDS011;19476;51.448;6.674;2023-05-31T13:26:35;3.75;;;1.98;;
33104;SDS011;19476;51.448;6.674;2023-05-31T13:29:05;6.03;;;1.80;;
33104;SDS011;19476;51.448;6.674;2023-05-31T13:31:31;3.33;;;1.73;;
33104;SDS011;19476;51.448;6.674;2023-05-31T13:33:57;3.63;;;1.80;;
33104;SDS011;19476;51.448;6.674;2023-05-31T13:36:22;4.15;;;1.58;;
33104;SDS011;19476;51.448;6.674;2023-05-31T13:38:52;3.05;;;1.50;;
33104;SDS011;19476;51.448;6.674;2023-05-31T13:41:18;3.35;;;1.70;;
33104;SDS011;19476;51.448;6.674;2023-05-31T13:43:49;2.90;;;1.77;;
33104;SDS011;19476;51.448;6.674;2023-05-31T13:46:15;3.92;;;1.70;;
33104;SDS011;19476;51.448;6.674;2023-05-31T13:48:42;2.63;;;1.40;;
33104;SDS011;19476;51.448;6.674;2023-05-31T13:51:08;6.13;;;1.70;;
33104;SDS011;19476;51.448;6.674;2023-05-31T13:53:35;4.03;;;1.85;;
33104;SDS011;19476;51.448;6.674;2023-05-31T13:56:01;2.53;;;1.48;;
33104;SDS011;19476;51.448;6.674;2023-05-31T13:58:33;5.43;;;1.85;;
33104;SDS011;19476;51.448;6.674;2023-05-31T14:00:59;5.95;;;1.90;;
33104;SDS011;19476;51.448;6.674;2023-05-31T14:03:25;4.55;;;1.73;;
33104;SDS011;19476;51.448;6.674;2023-05-31T14:05:51;2.55;;;1.52;;
33104;SDS011;19476;51.448;6.674;2023-05-31T14:08:17;5.45;;;1.92;;
33104;SDS011;19476;51.448;6.674;2023-05-31T14:10:43;3.17;;;1.70;;
33104;SDS011;19476;51.448;6.674;2023-05-31T14:13:09;6.35;;;1.77;;
33104;SDS011;19476;51.448;6.674;2023-05-31T14:15:36;3.95;;;1.77;;
33104;SDS011;19476;51.448;6.674;2023-05-31T14:18:02;3.97;;;1.85;;
33104;SDS011;19476;51.448;6.674;2023-05-31T14:20:28;5.45;;;1.70;;
33104;SDS011;19476;51.448;6.674;2023-05-31T14:22:54;4.95;;;2.10;;
33104;SDS011;19476;51.448;6.674;2023-05-31T14:25:20;4.75;;;1.90;;
33104;SDS011;19476;51.448;6.674;2023-05-31T14:27:46;4.57;;;1.98;;
33104;SDS011;19476;51.448;6.674;2023-05-31T14:30:12;6.85;;;2.78;;
33104;SDS011;19476;51.448;6.674;2023-05-31T14:32:37;5.80;;;2.33;;
33104;SDS011;19476;51.448;6.674;2023-05-31T14:35:05;3.63;;;1.90;;
33104;SDS011;19476;51.448;6.674;2023-05-31T14:37:36;2.38;;;1.38;;
33104;SDS011;19476;51.448;6.674;2023-05-31T14:40:15;6.10;;;1.63;;
33104;SDS011;19476;51.448;6.674;2023-05-31T14:42:41;2.95;;;1.73;;
33104;SDS011;19476;51.448;6.674;2023-05-31T14:45:07;4.10;;;1.70;;
33104;SDS011;19476;51.448;6.674;2023-05-31T14:47:33;6.22;;;2.05;;
33104;SDS011;19476;51.448;6.674;2023-05-31T14:50:03;5.10;;;1.80;;
33104;SDS011;19476;51.448;6.674;2023-05-31T14:52:29;3.33;;;1.90;;
33104;SDS011;19476;51.448;6.674;2023-05-31T14:54:55;2.83;;;1.88;;
33104;SDS011;19476;51.448;6.674;2023-05-31T14:57:24;3.53;;;1.88;;
33104;SDS011;19476;51.448;6.674;2023-05-31T15:02:19;3.80;;;1.90;;
33104;SDS011;19476;51.448;6.674;2023-05-31T15:04:45;4.03;;;1.75;;
33104;SDS011;19476;51.448;6.674;2023-05-31T15:07:11;2.63;;;1.40;;
33104;SDS011;19476;51.448;6.674;2023-05-31T15:09:38;3.80;;;1.77;;
33104;SDS011;19476;51.448;6.674;2023-05-31T15:12:04;3.60;;;1.77;;
33104;SDS011;19476;51.448;6.674;2023-05-31T15:14:32;4.18;;;2.20;;
33104;SDS011;19476;51.448;6.674;2023-05-31T15:16:58;4.00;;;2.17;;
33104;SDS011;19476;51.448;6.674;2023-05-31T15:19:23;4.78;;;2.10;;
33104;SDS011;19476;51.448;6.674;2023-05-31T15:21:49;6.43;;;1.95;;
33104;SDS011;19476;51.448;6.674;2023-05-31T15:24:15;3.80;;;2.15;;
33104;SDS011;19476;51.448;6.674;2023-05-31T15:26:42;4.90;;;2.05;;
33104;SDS011;19476;51.448;6.674;2023-05-31T15:29:08;6.72;;;2.80;;
33104;SDS011;19476;51.448;6.674;2023-05-31T15:31:36;3.45;;;1.95;;